KGYR/GYR METAR and TAF weather

Enter ICAO airport designator
Station Type Date Time Source
KGYR METAR 2021/03/08 15:47 UTC NOAA

KGYR 081547Z 00000KT 10SM BKN130 BKN200 21/M02 A3004


Station Type Date Time Source
KGYR Decoded METAR 2021/03/08 15:47 UTC NOAA

Goodyear Municipal, AZ, United States (KGYR) 33-25N 112-23W
Mar 08, 2021 - 10:47 AM EST / 2021.03.08 1547 UTC
Wind: Calm:0
Visibility: 10 mile(s):0
Sky conditions: mostly cloudy
Temperature: 69 F (21 C)
Dew Point: 28 F (-2 C)
Relative Humidity: 21%
Pressure (altimeter): 30.04 in. Hg (1017 hPa)
ob: KGYR 081547Z 00000KT 10SM BKN130 BKN200 21/M02 A3004
cycle: 16

Station Type Date Time Source
KGYR TAF UTC NOAA

Error!

Example: see airport list